Dades meteomassalio
Diari Summary for Agost 10, 2017 Units:  Metric    English   Both
« Previous Day
Next Day »
Diari Semanal Mensual Anual Personalitzat
  Maxima: Minima: Mijana:
Temperatura: 24.6 °C 13.1 °C 18.8 °C
Rosada: 10.7 °C 8.2 °C 9.5 °C
Humitat: 73 % 39 % 56 %
Velocitat del vent: 49.9 km/h 5.6 km/h 28.6 km/h
Racha vent: 49.9 km/h - -
Vent:- - WNW
Pressio: 1023.6 hPa 1020.5 hPa -
Pluja: 0.0 mm    
Historical Graphs
 
 
Tabular Data for Agost 10, 2017
Time Temperature Dew Point Pressure Wind Wind Speed Wind Gust Humidity Rainfall Rate (Hourly) solar Conditions
00:04 15.9 °C 9.8 °C 1021.6 hPa WNW 16.1 km/h 16.1 km/h 67 % 0.0 mm 0.0 W/m2 RA
00:09 15.9 °C 9.6 °C 1021.6 hPa WNW 22.2 km/h 22.2 km/h 66 % 0.0 mm 0.0 W/m2 CLR
00:14 16.0 °C 9.7 °C 1021.6 hPa WNW 18.5 km/h 18.5 km/h 66 % 0.0 mm 0.0 W/m2 CLR
00:19 16.1 °C 9.2 °C 1021.6 hPa NW 22.2 km/h 22.2 km/h 64 % 0.0 mm 0.0 W/m2 CLR
00:24 16.1 °C 9.3 °C 1021.6 hPa WNW 27.8 km/h 27.8 km/h 64 % 0.0 mm 0.0 W/m2 CLR
00:29 16.1 °C 9.3 °C 1021.6 hPa West 18.5 km/h 18.5 km/h 64 % 0.5 mm 0.0 W/m2 CLR
00:34 16.1 °C 8.8 °C 1021.9 hPa WNW 27.8 km/h 27.8 km/h 62 % 0.3 mm 0.0 W/m2 CLR
00:39 16.2 °C 8.6 °C 1021.9 hPa NW 29.6 km/h 29.6 km/h 61 % 0.0 mm 0.0 W/m2 CLR
00:44 16.1 °C 8.8 °C 1021.9 hPa WNW 18.5 km/h 18.5 km/h 62 % 0.0 mm 0.0 W/m2 CLR
00:49 16.1 °C 8.8 °C 1021.9 hPa WNW 22.2 km/h 22.2 km/h 62 % 0.0 mm 0.0 W/m2 CLR
00:54 16.1 °C 8.8 °C 1021.9 hPa NW 27.8 km/h 27.8 km/h 62 % 0.0 mm 0.0 W/m2 CLR
00:59 16.0 °C 8.7 °C 1021.9 hPa WNW 24.1 km/h 24.1 km/h 62 % 0.0 mm 0.0 W/m2 CLR
01:04 16.0 °C 8.7 °C 1021.9 hPa West 29.6 km/h 29.6 km/h 62 % 0.0 mm 0.0 W/m2 CLR
01:09 16.0 °C 8.7 °C 1021.9 hPa NW 27.8 km/h 27.8 km/h 62 % 0.0 mm 0.0 W/m2 CLR
01:14 15.9 °C 8.7 °C 1021.9 hPa WNW 22.2 km/h 22.2 km/h 62 % 0.0 mm 0.0 W/m2 CLR
01:19 15.9 °C 8.6 °C 1021.9 hPa NW 27.4 km/h 27.4 km/h 62 % 0.0 mm 0.0 W/m2 CLR
01:24 15.9 °C 8.6 °C 1021.9 hPa WNW 31.5 km/h 31.5 km/h 62 % 0.0 mm 0.0 W/m2 CLR
01:29 15.8 °C 8.6 °C 1022.2 hPa NW 27.8 km/h 27.8 km/h 62 % 0.0 mm 0.0 W/m2 CLR
01:34 15.8 °C 8.6 °C 1022.2 hPa WNW 18.5 km/h 18.5 km/h 62 % 0.0 mm 0.0 W/m2 CLR
01:39 15.8 °C 8.8 °C 1022.2 hPa NW 20.4 km/h 20.4 km/h 63 % 0.0 mm 0.0 W/m2 CLR
01:44 15.8 °C 8.6 °C 1022.2 hPa NW 24.1 km/h 24.1 km/h 62 % 0.0 mm 0.0 W/m2 CLR
01:49 15.8 °C 8.8 °C 1022.2 hPa NNW 20.4 km/h 20.4 km/h 63 % 0.0 mm 0.0 W/m2 CLR
01:54 15.8 °C 8.8 °C 1022.2 hPa WNW 20.4 km/h 20.4 km/h 63 % 0.0 mm 0.0 W/m2 CLR
01:59 15.8 °C 8.7 °C 1022.2 hPa West 22.2 km/h 22.2 km/h 63 % 0.0 mm 0.0 W/m2 CLR
02:04 15.7 °C 8.9 °C 1022.2 hPa WNW 25.9 km/h 25.9 km/h 64 % 0.0 mm 0.0 W/m2 CLR
02:09 15.6 °C 9.1 °C 1022.6 hPa WNW 27.8 km/h 27.8 km/h 65 % 0.0 mm 0.0 W/m2 CLR
02:14 15.6 °C 9.0 °C 1022.2 hPa WNW 24.1 km/h 24.1 km/h 65 % 0.0 mm 0.0 W/m2 CLR
02:19 15.6 °C 9.0 °C 1022.2 hPa West 27.8 km/h 27.8 km/h 65 % 0.0 mm 0.0 W/m2 CLR
02:24 15.5 °C 9.2 °C 1022.2 hPa WNW 22.2 km/h 22.2 km/h 66 % 0.0 mm 0.0 W/m2 CLR
02:26 15.5 °C 9.2 °C 1022.2 hPa WNW 20.9 km/h 20.9 km/h 66 % 0.0 mm 0.0 W/m2 CLR
02:31 15.3 °C 9.2 °C 1022.2 hPa NW 18.5 km/h 18.5 km/h 67 % 0.0 mm 0.0 W/m2 CLR
02:36 15.3 °C 8.9 °C 1021.9 hPa NNW 22.2 km/h 22.2 km/h 66 % 0.0 mm 0.0 W/m2 CLR
02:41 15.3 °C 8.9 °C 1021.9 hPa West 33.3 km/h 33.3 km/h 66 % 0.0 mm 0.0 W/m2 CLR
02:46 15.3 °C 8.9 °C 1021.9 hPa WNW 37.0 km/h 37.0 km/h 66 % 0.0 mm 0.0 W/m2 CLR
02:51 15.3 °C 8.9 °C 1021.9 hPa NW 37.0 km/h 37.0 km/h 66 % 0.0 mm 0.0 W/m2 CLR
02:56 15.2 °C 8.9 °C 1021.9 hPa West 35.2 km/h 35.2 km/h 66 % 0.0 mm 0.0 W/m2 CLR
03:01 15.1 °C 8.8 °C 1021.9 hPa West 35.4 km/h 35.4 km/h 66 % 0.0 mm 0.0 W/m2 CLR
03:06 15.1 °C 8.8 °C 1021.9 hPa WNW 27.8 km/h 27.8 km/h 66 % 0.0 mm 0.0 W/m2 CLR
03:11 15.0 °C 8.9 °C 1021.6 hPa NW 31.5 km/h 31.5 km/h 67 % 0.0 mm 0.0 W/m2 CLR
03:16 15.0 °C 8.9 °C 1021.9 hPa NW 42.6 km/h 42.6 km/h 67 % 0.0 mm 0.0 W/m2 CLR
03:21 14.9 °C 8.9 °C 1021.6 hPa WNW 25.9 km/h 25.9 km/h 67 % 0.0 mm 0.0 W/m2 CLR
03:26 14.8 °C 9.0 °C 1021.6 hPa NW 35.2 km/h 35.2 km/h 68 % 0.0 mm 0.0 W/m2 CLR
03:31 14.8 °C 9.0 °C 1021.9 hPa WNW 25.9 km/h 25.9 km/h 68 % 0.0 mm 0.0 W/m2 CLR
03:36 14.8 °C 8.9 °C 1021.9 hPa WSW 16.7 km/h 16.7 km/h 68 % 0.0 mm 0.0 W/m2 CLR
03:41 14.7 °C 8.9 °C 1021.6 hPa WNW 27.8 km/h 27.8 km/h 68 % 0.0 mm 0.0 W/m2 CLR
03:46 14.6 °C 9.0 °C 1021.6 hPa WNW 24.1 km/h 24.1 km/h 69 % 0.0 mm 0.0 W/m2 CLR
03:51 14.6 °C 8.9 °C 1021.6 hPa WNW 20.4 km/h 20.4 km/h 69 % 0.0 mm 0.0 W/m2 CLR
03:56 14.4 °C 8.8 °C 1021.6 hPa WNW 27.4 km/h 27.4 km/h 69 % 0.0 mm 0.0 W/m2 CLR
04:01 14.3 °C 8.9 °C 1021.6 hPa WNW 25.9 km/h 25.9 km/h 70 % 0.0 mm 0.0 W/m2 CLR
04:06 14.3 °C 8.9 °C 1021.6 hPa NW 16.7 km/h 16.7 km/h 70 % 0.0 mm 0.0 W/m2 CLR
04:11 14.2 °C 8.8 °C 1021.9 hPa WNW 16.7 km/h 16.7 km/h 70 % 0.0 mm 0.0 W/m2 CLR
04:16 14.2 °C 8.8 °C 1021.9 hPa West 18.5 km/h 18.5 km/h 70 % 0.0 mm 0.0 W/m2 CLR
04:21 14.1 °C 8.7 °C 1021.9 hPa WNW 20.4 km/h 20.4 km/h 70 % 0.0 mm 0.0 W/m2 CLR
04:26 14.1 °C 8.7 °C 1021.9 hPa West 18.5 km/h 18.5 km/h 70 % 0.0 mm 0.0 W/m2 CLR
04:31 14.1 °C 8.7 °C 1021.9 hPa WSW 14.8 km/h 14.8 km/h 70 % 0.0 mm 0.0 W/m2 CLR
04:36 14.0 °C 8.6 °C 1021.9 hPa West 24.1 km/h 24.1 km/h 70 % 0.0 mm 0.0 W/m2 CLR
04:41 14.0 °C 8.6 °C 1021.9 hPa WNW 20.9 km/h 20.9 km/h 70 % 0.0 mm 0.0 W/m2 CLR
04:46 13.9 °C 8.6 °C 1021.9 hPa West 18.5 km/h 18.5 km/h 70 % 0.0 mm 0.0 W/m2 CLR
04:51 13.9 °C 8.8 °C 1021.9 hPa WNW 20.9 km/h 20.9 km/h 71 % 0.0 mm 0.0 W/m2 CLR
04:56 13.9 °C 8.7 °C 1021.9 hPa WNW 24.1 km/h 24.1 km/h 71 % 0.0 mm 0.0 W/m2 CLR
05:01 13.8 °C 8.6 °C 1021.9 hPa WNW 18.5 km/h 18.5 km/h 71 % 0.0 mm 0.0 W/m2 CLR
05:06 13.7 °C 8.8 °C 1021.6 hPa West 24.1 km/h 24.1 km/h 72 % 0.0 mm 0.0 W/m2 CLR
05:11 13.7 °C 8.8 °C 1021.9 hPa WNW 19.3 km/h 19.3 km/h 72 % 0.0 mm 0.0 W/m2 CLR
05:16 13.8 °C 8.6 °C 1021.9 hPa WNW 24.1 km/h 24.1 km/h 71 % 0.0 mm 0.0 W/m2 CLR
05:21 13.8 °C 8.7 °C 1021.9 hPa West 20.4 km/h 20.4 km/h 71 % 0.0 mm 0.0 W/m2 CLR
05:23 13.8 °C 8.6 °C 1021.6 hPa West 24.1 km/h 24.1 km/h 71 % 0.0 mm 0.0 W/m2 CLR
05:24 13.8 °C 8.6 °C 1021.6 hPa WNW 20.4 km/h 20.4 km/h 71 % 0.0 mm 0.0 W/m2 CLR
05:26 13.8 °C 8.6 °C 1021.6 hPa West 20.4 km/h 20.4 km/h 71 % 0.0 mm 0.0 W/m2 CLR
05:31 13.7 °C 8.6 °C 1021.6 hPa NW 25.7 km/h 25.7 km/h 71 % 0.0 mm 0.0 W/m2 CLR
05:34 13.7 °C 8.5 °C 1021.6 hPa WNW 20.9 km/h 20.9 km/h 71 % 0.0 mm 0.0 W/m2 CLR
05:36 13.7 °C 8.5 °C 1021.6 hPa WSW 25.9 km/h 25.9 km/h 71 % 0.0 mm 0.0 W/m2 CLR
05:41 13.6 °C 8.4 °C 1021.6 hPa West 22.5 km/h 22.5 km/h 71 % 0.0 mm 0.0 W/m2 CLR
05:46 13.6 °C 8.4 °C 1021.6 hPa West 18.5 km/h 18.5 km/h 71 % 0.0 mm 0.0 W/m2 CLR
05:51 13.7 °C 8.5 °C 1021.9 hPa WNW 20.9 km/h 20.9 km/h 71 % 0.0 mm 0.0 W/m2 CLR
05:56 13.6 °C 8.4 °C 1021.6 hPa WNW 16.7 km/h 16.7 km/h 71 % 0.0 mm 0.0 W/m2 CLR
06:01 13.7 °C 8.5 °C 1021.6 hPa WNW 25.9 km/h 25.9 km/h 71 % 0.0 mm 0.0 W/m2 CLR
06:06 13.6 °C 8.4 °C 1021.9 hPa WNW 18.5 km/h 18.5 km/h 71 % 0.0 mm 0.0 W/m2 CLR
06:11 13.6 °C 8.4 °C 1021.9 hPa WNW 25.9 km/h 25.9 km/h 71 % 0.0 mm 0.0 W/m2 CLR
06:16 13.6 °C 8.4 °C 1021.9 hPa West 22.2 km/h 22.2 km/h 71 % 0.0 mm 0.0 W/m2 CLR
06:21 13.6 °C 8.4 °C 1021.9 hPa West 31.5 km/h 31.5 km/h 71 % 0.0 mm 0.0 W/m2 CLR
06:26 13.6 °C 8.4 °C 1021.9 hPa WNW 20.9 km/h 20.9 km/h 71 % 0.0 mm 0.0 W/m2 CLR
06:31 13.6 °C 8.4 °C 1021.9 hPa WNW 22.2 km/h 22.2 km/h 71 % 0.0 mm 0.0 W/m2 CLR
06:36 13.6 °C 8.4 °C 1022.2 hPa WNW 20.9 km/h 20.9 km/h 71 % 0.0 mm 0.0 W/m2 CLR
06:41 13.6 °C 8.4 °C 1022.2 hPa West 24.1 km/h 24.1 km/h 71 % 0.0 mm 0.0 W/m2 CLR
06:46 13.6 °C 8.4 °C 1022.2 hPa WNW 22.2 km/h 22.2 km/h 71 % 0.0 mm 0.0 W/m2 CLR
06:51 13.5 °C 8.3 °C 1022.2 hPa WNW 22.5 km/h 22.5 km/h 71 % 0.0 mm 0.0 W/m2 CLR
06:56 13.5 °C 8.3 °C 1022.2 hPa West 18.5 km/h 18.5 km/h 71 % 0.0 mm 0.0 W/m2 CLR
07:01 13.6 °C 8.4 °C 1022.2 hPa WSW 16.7 km/h 16.7 km/h 71 % 0.0 mm 0.0 W/m2 OVC
07:02 13.6 °C 8.4 °C 1022.2 hPa West 16.7 km/h 16.7 km/h 71 % 0.0 mm 0.0 W/m2 OVC
07:07 13.5 °C 8.3 °C 1022.6 hPa SW 11.1 km/h 11.1 km/h 71 % 0.0 mm 0.0 W/m2 OVC
07:12 13.4 °C 8.2 °C 1022.6 hPa West 13.0 km/h 13.0 km/h 71 % 0.0 mm 5.0 W/m2 OVC
07:17 13.3 °C 8.3 °C 1022.6 hPa WSW 14.8 km/h 14.8 km/h 72 % 0.0 mm 7.0 W/m2 BKN
07:22 13.2 °C 8.2 °C 1022.6 hPa West 11.1 km/h 11.1 km/h 72 % 0.0 mm 9.0 W/m2 BKN
07:27 13.1 °C 8.2 °C 1022.6 hPa WSW 11.1 km/h 11.1 km/h 72 % 0.0 mm 11.0 W/m2 BKN
07:32 13.1 °C 8.4 °C 1022.6 hPa WSW 14.5 km/h 14.5 km/h 73 % 0.0 mm 14.0 W/m2 BKN
07:37 13.2 °C 8.2 °C 1022.6 hPa West 13.0 km/h 13.0 km/h 72 % 0.0 mm 18.0 W/m2 BKN
07:42 13.3 °C 8.6 °C 1022.6 hPa WSW 16.7 km/h 16.7 km/h 73 % 0.0 mm 33.0 W/m2 BKN
07:47 13.5 °C 8.6 °C 1022.9 hPa West 16.7 km/h 16.7 km/h 72 % 0.0 mm 42.0 W/m2 BKN
07:52 13.7 °C 8.7 °C 1022.9 hPa WSW 9.7 km/h 9.7 km/h 72 % 0.0 mm 63.0 W/m2 SCT
07:57 13.9 °C 8.7 °C 1022.9 hPa SW 5.6 km/h 5.6 km/h 71 % 0.0 mm 76.0 W/m2 FEW
08:02 14.0 °C 8.8 °C 1022.9 hPa West 18.5 km/h 18.5 km/h 71 % 0.0 mm 88.0 W/m2 FEW
08:07 14.2 °C 8.8 °C 1022.9 hPa West 16.7 km/h 16.7 km/h 70 % 0.0 mm 42.0 W/m2 FEW
08:12 14.3 °C 8.9 °C 1022.9 hPa West 18.5 km/h 18.5 km/h 70 % 0.0 mm 47.0 W/m2 FEW
08:17 14.4 °C 9.0 °C 1023.2 hPa WSW 14.8 km/h 14.8 km/h 70 % 0.0 mm 144.0 W/m2 SCT
08:22 14.6 °C 9.0 °C 1023.2 hPa WNW 18.5 km/h 18.5 km/h 69 % 0.0 mm 144.0 W/m2 FEW
08:27 14.7 °C 9.1 °C 1023.2 hPa West 24.1 km/h 24.1 km/h 69 % 0.0 mm 109.0 W/m2 FEW
08:32 14.8 °C 9.0 °C 1023.2 hPa West 18.5 km/h 18.5 km/h 68 % 0.0 mm 120.0 W/m2 CLR
08:37 14.9 °C 9.1 °C 1023.2 hPa West 24.1 km/h 24.1 km/h 68 % 0.0 mm 130.0 W/m2 CLR
08:42 15.1 °C 9.0 °C 1023.2 hPa WNW 33.3 km/h 33.3 km/h 67 % 0.0 mm 156.0 W/m2 CLR
08:47 15.2 °C 9.1 °C 1023.2 hPa West 22.2 km/h 22.2 km/h 67 % 0.0 mm 83.0 W/m2 CLR
08:52 15.2 °C 9.1 °C 1023.2 hPa West 22.2 km/h 22.2 km/h 67 % 0.0 mm 84.0 W/m2 CLR
08:57 15.4 °C 9.3 °C 1023.2 hPa West 25.9 km/h 25.9 km/h 67 % 0.0 mm 301.0 W/m2 CLR
09:02 15.5 °C 9.4 °C 1023.2 hPa West 31.5 km/h 31.5 km/h 67 % 0.0 mm 302.0 W/m2 CLR
09:07 15.7 °C 9.6 °C 1023.2 hPa WNW 13.0 km/h 14.6 km/h 67 % 0.0 mm 327.0 W/m2 CLR
09:12 16.0 °C 9.7 °C 1023.2 hPa West 29.6 km/h 29.6 km/h 66 % 0.0 mm 329.0 W/m2 CLR
09:17 16.1 °C 9.5 °C 1023.2 hPa WNW 29.6 km/h 29.6 km/h 65 % 0.0 mm 343.0 W/m2 CLR
09:23 16.2 °C 9.6 °C 1023.2 hPa West 20.4 km/h 20.4 km/h 65 % 0.0 mm 353.0 W/m2 CLR
09:28 16.4 °C 9.6 °C 1023.2 hPa WNW 22.2 km/h 22.2 km/h 64 % 0.0 mm 410.0 W/m2 CLR
09:33 16.4 °C 9.8 °C 1023.2 hPa WNW 38.6 km/h 38.6 km/h 65 % 0.0 mm 211.0 W/m2 CLR
09:38 16.7 °C 9.9 °C 1023.2 hPa WNW 30.6 km/h 30.6 km/h 64 % 0.0 mm 190.0 W/m2 CLR
09:43 16.7 °C 9.8 °C 1023.2 hPa NW 29.6 km/h 29.6 km/h 64 % 0.0 mm 445.0 W/m2 CLR
09:48 16.8 °C 9.7 °C 1023.2 hPa NW 35.2 km/h 35.2 km/h 63 % 0.0 mm 471.0 W/m2 CLR
09:53 17.1 °C 10.0 °C 1023.2 hPa WNW 38.9 km/h 38.9 km/h 63 % 0.0 mm 499.0 W/m2 CLR
09:58 17.2 °C 10.1 °C 1023.2 hPa NW 29.0 km/h 29.0 km/h 63 % 0.0 mm 492.0 W/m2 CLR
10:03 17.5 °C 10.1 °C 1023.2 hPa WNW 22.2 km/h 22.2 km/h 62 % 0.0 mm 559.0 W/m2 CLR
10:08 17.7 °C 10.3 °C 1023.2 hPa NW 24.1 km/h 24.1 km/h 62 % 0.0 mm 612.0 W/m2 CLR
10:13 17.8 °C 9.9 °C 1023.2 hPa WNW 25.9 km/h 25.9 km/h 60 % 0.0 mm 635.0 W/m2 CLR
10:18 17.8 °C 9.9 °C 1023.2 hPa WNW 33.3 km/h 33.3 km/h 60 % 0.0 mm 680.0 W/m2 CLR
10:23 17.7 °C 10.1 °C 1023.2 hPa NNW 22.2 km/h 22.2 km/h 61 % 0.0 mm 615.0 W/m2 CLR
10:28 18.0 °C 10.1 °C 1023.2 hPa West 35.4 km/h 35.4 km/h 60 % 0.0 mm 686.0 W/m2 CLR
10:33 18.3 °C 9.9 °C 1023.2 hPa WNW 29.0 km/h 29.0 km/h 58 % 0.0 mm 701.0 W/m2 CLR
10:38 18.4 °C 10.0 °C 1023.2 hPa NW 31.5 km/h 31.5 km/h 58 % 0.0 mm 714.0 W/m2 CLR
10:43 18.7 °C 10.0 °C 1023.2 hPa NNW 29.6 km/h 29.6 km/h 57 % 0.0 mm 763.0 W/m2 CLR
10:48 18.6 °C 9.9 °C 1023.2 hPa NW 30.6 km/h 30.6 km/h 57 % 0.0 mm 682.0 W/m2 CLR
10:53 18.8 °C 9.8 °C 1023.2 hPa NW 33.8 km/h 33.8 km/h 56 % 0.0 mm 703.0 W/m2 CLR
10:58 18.9 °C 9.9 °C 1023.2 hPa NNW 30.6 km/h 30.6 km/h 56 % 0.0 mm 763.0 W/m2 CLR
11:03 18.9 °C 9.9 °C 1023.2 hPa NW 32.2 km/h 32.2 km/h 56 % 0.0 mm 151.0 W/m2 CLR
11:08 18.7 °C 10.0 °C 1023.2 hPa NNW 31.5 km/h 31.5 km/h 57 % 0.0 mm 729.0 W/m2 CLR
11:13 19.2 °C 10.2 °C 1023.2 hPa NW 27.8 km/h 27.8 km/h 56 % 0.0 mm 826.0 W/m2 CLR
11:18 19.6 °C 10.3 °C 1023.2 hPa NW 29.6 km/h 29.6 km/h 55 % 0.0 mm 779.0 W/m2 CLR
11:23 19.6 °C 10.0 °C 1022.9 hPa WNW 29.6 km/h 29.6 km/h 54 % 0.0 mm 846.0 W/m2 CLR
11:28 19.3 °C 9.8 °C 1022.9 hPa NW 29.6 km/h 29.6 km/h 54 % 0.0 mm 155.0 W/m2 CLR
11:33 19.3 °C 9.7 °C 1022.9 hPa NW 38.6 km/h 38.6 km/h 54 % 0.0 mm 798.0 W/m2 CLR
11:38 19.7 °C 9.8 °C 1022.9 hPa NW 31.5 km/h 31.5 km/h 53 % 0.0 mm 798.0 W/m2 CLR
11:43 19.8 °C 9.9 °C 1022.9 hPa NW 33.3 km/h 33.3 km/h 53 % 0.0 mm 810.0 W/m2 CLR
11:48 19.8 °C 9.7 °C 1022.9 hPa NW 38.9 km/h 38.9 km/h 52 % 0.0 mm 211.0 W/m2 CLR
11:53 19.6 °C 9.8 °C 1022.6 hPa WNW 29.6 km/h 29.6 km/h 53 % 0.0 mm 905.0 W/m2 CLR
11:58 19.8 °C 9.4 °C 1022.9 hPa North 25.9 km/h 25.9 km/h 51 % 0.0 mm 954.0 W/m2 CLR
12:03 20.2 °C 9.8 °C 1022.6 hPa NNW 35.4 km/h 35.4 km/h 51 % 0.0 mm 889.0 W/m2 CLR
12:08 20.5 °C 9.7 °C 1022.6 hPa WNW 35.2 km/h 35.2 km/h 50 % 0.0 mm 824.0 W/m2 CLR
12:13 20.8 °C 9.7 °C 1022.6 hPa NW 27.8 km/h 27.8 km/h 49 % 0.0 mm 916.0 W/m2 CLR
12:18 20.8 °C 9.7 °C 1022.6 hPa NW 31.5 km/h 31.5 km/h 49 % 0.0 mm 879.0 W/m2 CLR
12:23 20.7 °C 9.6 °C 1022.6 hPa NNW 42.6 km/h 42.6 km/h 49 % 0.0 mm 830.0 W/m2 CLR
12:28 20.6 °C 9.8 °C 1022.6 hPa NW 29.0 km/h 29.0 km/h 50 % 0.0 mm 840.0 W/m2 CLR
12:33 20.7 °C 9.3 °C 1022.9 hPa NNW 44.4 km/h 44.4 km/h 48 % 0.0 mm 840.0 W/m2 CLR
12:38 20.9 °C 9.4 °C 1022.6 hPa NW 35.2 km/h 35.2 km/h 48 % 0.0 mm 865.0 W/m2 CLR
12:43 20.8 °C 9.7 °C 1022.6 hPa NW 24.1 km/h 24.1 km/h 49 % 0.0 mm 893.0 W/m2 CLR
12:48 21.3 °C 9.5 °C 1022.6 hPa NNW 38.9 km/h 38.9 km/h 47 % 0.0 mm 867.0 W/m2 CLR
12:53 21.3 °C 9.6 °C 1022.2 hPa NNW 31.5 km/h 31.5 km/h 47 % 0.0 mm 867.0 W/m2 CLR
12:58 21.6 °C 9.8 °C 1022.2 hPa WNW 31.5 km/h 31.5 km/h 47 % 0.0 mm 872.0 W/m2 CLR
13:03 21.5 °C 9.7 °C 1022.2 hPa NW 42.6 km/h 42.6 km/h 47 % 0.0 mm 886.0 W/m2 CLR
13:08 21.4 °C 9.9 °C 1022.2 hPa NNW 35.4 km/h 35.4 km/h 48 % 0.0 mm 877.0 W/m2 CLR
13:13 21.6 °C 10.1 °C 1022.2 hPa NNW 31.5 km/h 31.5 km/h 48 % 0.0 mm 933.0 W/m2 CLR
13:18 21.7 °C 9.6 °C 1022.6 hPa NNW 37.0 km/h 37.0 km/h 46 % 0.0 mm 954.0 W/m2 CLR
13:23 21.9 °C 9.4 °C 1022.2 hPa NW 40.7 km/h 40.7 km/h 45 % 0.0 mm 933.0 W/m2 CLR
13:28 22.0 °C 10.2 °C 1022.2 hPa NW 33.3 km/h 33.3 km/h 47 % 0.0 mm 960.0 W/m2 CLR
13:33 22.2 °C 9.7 °C 1022.2 hPa WNW 35.2 km/h 35.2 km/h 45 % 0.0 mm 979.0 W/m2 CLR
13:38 22.2 °C 9.7 °C 1021.9 hPa West 29.0 km/h 29.0 km/h 45 % 0.0 mm 1041.0 W/m2 CLR
13:43 22.2 °C 9.7 °C 1022.2 hPa WNW 29.6 km/h 29.6 km/h 45 % 0.0 mm 951.0 W/m2 CLR
13:48 22.5 °C 9.9 °C 1021.9 hPa NNW 24.1 km/h 24.1 km/h 45 % 0.0 mm 1046.0 W/m2 CLR
13:53 22.8 °C 9.9 °C 1021.9 hPa WNW 22.2 km/h 22.2 km/h 44 % 0.0 mm 930.0 W/m2 CLR
13:58 22.7 °C 9.8 °C 1021.9 hPa NW 24.1 km/h 24.1 km/h 44 % 0.0 mm 925.0 W/m2 CLR
14:03 22.8 °C 9.6 °C 1021.9 hPa NW 37.0 km/h 37.0 km/h 43 % 0.0 mm 911.0 W/m2 CLR
14:08 22.6 °C 9.7 °C 1021.9 hPa WNW 22.2 km/h 22.2 km/h 44 % 0.0 mm 905.0 W/m2 CLR
14:13 23.1 °C 9.8 °C 1021.9 hPa WNW 27.8 km/h 27.8 km/h 43 % 0.0 mm 960.0 W/m2 CLR
14:18 23.2 °C 9.9 °C 1021.9 hPa NW 40.7 km/h 40.7 km/h 43 % 0.0 mm 909.0 W/m2 CLR
14:19 23.2 °C 9.9 °C 1021.9 hPa NW 40.7 km/h 40.7 km/h 43 % 0.0 mm 909.0 W/m2 CLR
14:24 23.2 °C 9.9 °C 1021.9 hPa WNW 38.9 km/h 38.9 km/h 43 % 0.0 mm 928.0 W/m2 CLR
14:29 23.2 °C 9.6 °C 1021.9 hPa NW 37.0 km/h 37.0 km/h 42 % 0.0 mm 949.0 W/m2 CLR
14:34 23.3 °C 9.7 °C 1021.9 hPa NNW 42.6 km/h 42.6 km/h 42 % 0.0 mm 984.0 W/m2 CLR
14:39 23.4 °C 10.2 °C 1021.9 hPa WNW 24.1 km/h 24.1 km/h 43 % 0.0 mm 998.0 W/m2 CLR
14:44 23.9 °C 9.8 °C 1021.6 hPa NNW 22.2 km/h 22.2 km/h 41 % 0.0 mm 956.0 W/m2 CLR
14:49 24.1 °C 9.6 °C 1021.6 hPa NW 31.5 km/h 31.5 km/h 40 % 0.0 mm 1034.0 W/m2 CLR
14:54 24.3 °C 10.2 °C 1021.6 hPa NNW 37.0 km/h 37.0 km/h 41 % 0.0 mm 1104.0 W/m2 CLR
14:59 24.0 °C 9.6 °C 1021.6 hPa WNW 31.5 km/h 31.5 km/h 40 % 0.0 mm 1002.0 W/m2 CLR
15:04 23.6 °C 9.6 °C 1021.6 hPa NNW 38.9 km/h 38.9 km/h 41 % 0.0 mm 889.0 W/m2 CLR
15:09 23.6 °C 9.6 °C 1021.6 hPa NW 22.2 km/h 22.2 km/h 41 % 0.0 mm 891.0 W/m2 CLR
15:14 23.8 °C 9.7 °C 1021.6 hPa NW 33.3 km/h 33.3 km/h 41 % 0.0 mm 877.0 W/m2 CLR
15:19 24.2 °C 9.7 °C 1021.6 hPa NNW 27.8 km/h 27.8 km/h 40 % 0.0 mm 872.0 W/m2 CLR
15:24 24.2 °C 9.7 °C 1021.6 hPa NNW 27.8 km/h 27.8 km/h 40 % 0.0 mm 865.0 W/m2 CLR
15:29 24.2 °C 9.7 °C 1021.6 hPa NW 20.4 km/h 20.4 km/h 40 % 0.0 mm 884.0 W/m2 CLR
15:34 24.6 °C 10.1 °C 1021.6 hPa NW 33.8 km/h 33.8 km/h 40 % 0.0 mm 882.0 W/m2 CLR
15:39 24.6 °C 9.7 °C 1021.6 hPa NNW 33.3 km/h 33.3 km/h 39 % 0.0 mm 856.0 W/m2 CLR
15:44 24.6 °C 10.1 °C 1021.6 hPa WNW 45.1 km/h 45.1 km/h 40 % 0.0 mm 844.0 W/m2 CLR
15:49 24.4 °C 10.3 °C 1021.6 hPa NW 35.2 km/h 35.2 km/h 41 % 0.0 mm 831.0 W/m2 CLR
15:54 24.2 °C 10.1 °C 1021.6 hPa NNW 42.6 km/h 42.6 km/h 41 % 0.0 mm 830.0 W/m2 CLR
15:59 24.1 °C 10.0 °C 1021.6 hPa NNW 25.7 km/h 25.7 km/h 41 % 0.0 mm 814.0 W/m2 CLR
16:04 24.3 °C 9.8 °C 1021.6 hPa NW 37.0 km/h 37.0 km/h 40 % 0.0 mm 802.0 W/m2 CLR
16:09 24.2 °C 10.1 °C 1021.2 hPa WNW 29.6 km/h 29.6 km/h 41 % 0.0 mm 807.0 W/m2 CLR
16:14 24.1 °C 10.0 °C 1021.2 hPa NW 38.9 km/h 38.9 km/h 41 % 0.0 mm 788.0 W/m2 CLR
16:19 24.2 °C 10.1 °C 1021.2 hPa North 31.5 km/h 31.5 km/h 41 % 0.0 mm 775.0 W/m2 CLR
16:24 24.6 °C 10.1 °C 1021.2 hPa NNW 37.0 km/h 37.0 km/h 40 % 0.0 mm 761.0 W/m2 CLR
16:29 24.6 °C 10.1 °C 1021.2 hPa NNW 44.4 km/h 44.4 km/h 40 % 0.0 mm 765.0 W/m2 CLR
16:34 24.3 °C 10.6 °C 1021.2 hPa NNW 38.9 km/h 38.9 km/h 42 % 0.0 mm 733.0 W/m2 CLR
16:39 24.3 °C 10.2 °C 1021.2 hPa WNW 31.5 km/h 31.5 km/h 41 % 0.0 mm 744.0 W/m2 CLR
16:44 24.4 °C 10.3 °C 1021.2 hPa WNW 31.5 km/h 31.5 km/h 41 % 0.0 mm 710.0 W/m2 CLR
16:49 24.3 °C 10.2 °C 1021.2 hPa NNW 33.3 km/h 33.3 km/h 41 % 0.0 mm 717.0 W/m2 CLR
16:54 24.2 °C 10.4 °C 1021.2 hPa WNW 37.0 km/h 37.0 km/h 42 % 0.0 mm 703.0 W/m2 CLR
16:59 24.2 °C 10.1 °C 1021.2 hPa NNW 31.5 km/h 31.5 km/h 41 % 0.0 mm 682.0 W/m2 CLR
17:04 24.4 °C 10.3 °C 1021.2 hPa WNW 32.2 km/h 32.2 km/h 41 % 0.0 mm 666.0 W/m2 CLR
17:09 24.5 °C 10.0 °C 1020.9 hPa WNW 37.0 km/h 37.0 km/h 40 % 0.0 mm 656.0 W/m2 CLR
17:14 24.3 °C 10.2 °C 1020.9 hPa NW 40.7 km/h 40.7 km/h 41 % 0.0 mm 636.0 W/m2 CLR
17:19 24.4 °C 9.9 °C 1020.9 hPa North 29.6 km/h 29.6 km/h 40 % 0.0 mm 624.0 W/m2 CLR
17:24 24.5 °C 10.4 °C 1020.9 hPa NNW 46.3 km/h 46.3 km/h 41 % 0.0 mm 613.0 W/m2 CLR
17:29 24.2 °C 10.1 °C 1020.9 hPa NW 40.7 km/h 40.7 km/h 41 % 0.0 mm 598.0 W/m2 CLR
17:34 24.1 °C 10.4 °C 1020.9 hPa NW 37.0 km/h 37.0 km/h 42 % 0.0 mm 584.0 W/m2 CLR
17:39 24.3 °C 10.6 °C 1020.9 hPa NNW 31.5 km/h 31.5 km/h 42 % 0.0 mm 568.0 W/m2 CLR
17:44 24.4 °C 10.7 °C 1020.9 hPa NNW 35.2 km/h 35.2 km/h 42 % 0.0 mm 554.0 W/m2 CLR
17:49 24.2 °C 10.5 °C 1021.2 hPa NW 35.2 km/h 35.2 km/h 42 % 0.0 mm 538.0 W/m2 CLR
17:54 24.1 °C 10.3 °C 1021.2 hPa NW 40.7 km/h 40.7 km/h 42 % 0.0 mm 526.0 W/m2 CLR
17:59 24.1 °C 10.4 °C 1020.9 hPa WNW 29.6 km/h 29.6 km/h 42 % 0.0 mm 508.0 W/m2 CLR
18:04 24.2 °C 10.4 °C 1021.2 hPa NNW 40.7 km/h 40.7 km/h 42 % 0.0 mm 497.0 W/m2 CLR
18:05 24.1 °C 10.4 °C 1021.2 hPa North 40.7 km/h 40.7 km/h 42 % 0.0 mm 494.0 W/m2 CLR
18:10 24.0 °C 9.9 °C 1020.9 hPa North 46.3 km/h 46.3 km/h 41 % 0.0 mm 478.0 W/m2 CLR
18:15 23.8 °C 10.2 °C 1020.9 hPa NW 31.5 km/h 31.5 km/h 42 % 0.0 mm 464.0 W/m2 CLR
18:20 23.9 °C 10.2 °C 1020.9 hPa NW 31.5 km/h 31.5 km/h 42 % 0.0 mm 450.0 W/m2 CLR
18:25 24.0 °C 9.9 °C 1020.9 hPa NW 37.0 km/h 37.0 km/h 41 % 0.0 mm 429.0 W/m2 CLR
18:30 24.1 °C 10.4 °C 1020.9 hPa NNW 31.5 km/h 31.5 km/h 42 % 0.0 mm 410.0 W/m2 CLR
18:35 23.9 °C 10.2 °C 1020.9 hPa North 33.8 km/h 33.8 km/h 42 % 0.0 mm 401.0 W/m2 CLR
18:40 23.9 °C 10.2 °C 1020.9 hPa NW 42.6 km/h 42.6 km/h 42 % 0.0 mm 385.0 W/m2 CLR
18:45 23.8 °C 10.2 °C 1020.9 hPa NNW 35.2 km/h 35.2 km/h 42 % 0.0 mm 362.0 W/m2 CLR
18:50 23.8 °C 10.2 °C 1020.9 hPa WNW 31.5 km/h 31.5 km/h 42 % 0.0 mm 352.0 W/m2 CLR
18:55 23.8 °C 10.2 °C 1020.5 hPa WNW 31.5 km/h 31.5 km/h 42 % 0.0 mm 336.0 W/m2 CLR
19:00 23.8 °C 10.1 °C 1020.9 hPa NW 44.4 km/h 44.4 km/h 42 % 0.0 mm 318.0 W/m2 CLR
19:01 23.7 °C 10.1 °C 1020.5 hPa NW 42.6 km/h 42.6 km/h 42 % 0.0 mm 316.0 W/m2 CLR
19:06 23.7 °C 10.1 °C 1020.9 hPa NNW 33.8 km/h 33.8 km/h 42 % 0.0 mm 299.0 W/m2 CLR
19:11 23.7 °C 10.1 °C 1020.9 hPa NW 32.2 km/h 32.2 km/h 42 % 0.0 mm 281.0 W/m2 CLR
19:16 23.3 °C 10.1 °C 1020.9 hPa NNW 40.7 km/h 40.7 km/h 43 % 0.0 mm 51.0 W/m2 CLR
19:21 23.3 °C 10.4 °C 1020.9 hPa WNW 37.0 km/h 37.0 km/h 44 % 0.0 mm 257.0 W/m2 CLR
19:26 23.3 °C 10.4 °C 1020.9 hPa WNW 38.9 km/h 38.9 km/h 44 % 0.0 mm 239.0 W/m2 CLR
19:31 23.1 °C 10.2 °C 1020.9 hPa NW 44.4 km/h 44.4 km/h 44 % 0.0 mm 216.0 W/m2 CLR
19:36 23.2 °C 10.2 °C 1020.9 hPa NW 38.9 km/h 38.9 km/h 44 % 0.0 mm 200.0 W/m2 CLR
19:41 23.2 °C 10.2 °C 1020.9 hPa WNW 40.7 km/h 40.7 km/h 44 % 0.0 mm 181.0 W/m2 CLR
19:46 23.1 °C 10.2 °C 1021.2 hPa NNW 35.2 km/h 35.2 km/h 44 % 0.0 mm 163.0 W/m2 CLR
19:51 22.9 °C 10.4 °C 1020.9 hPa NW 24.1 km/h 24.1 km/h 45 % 0.0 mm 144.0 W/m2 CLR
19:56 22.8 °C 10.2 °C 1021.2 hPa NW 40.7 km/h 40.7 km/h 45 % 0.0 mm 127.0 W/m2 CLR
20:01 22.7 °C 10.5 °C 1021.2 hPa NW 31.5 km/h 31.5 km/h 46 % 0.0 mm 111.0 W/m2 CLR
20:06 22.7 °C 10.1 °C 1021.2 hPa NNW 40.2 km/h 40.2 km/h 45 % 0.0 mm 97.0 W/m2 CLR
20:11 22.5 °C 9.9 °C 1021.2 hPa NW 27.8 km/h 27.8 km/h 45 % 0.0 mm 83.0 W/m2 FEW
20:16 22.3 °C 9.8 °C 1021.2 hPa NW 33.3 km/h 33.3 km/h 45 % 0.0 mm 67.0 W/m2 FEW
20:21 22.2 °C 10.1 °C 1021.2 hPa NNW 35.2 km/h 35.2 km/h 46 % 0.0 mm 54.0 W/m2 SCT
20:26 22.2 °C 10.3 °C 1021.2 hPa WNW 27.8 km/h 27.8 km/h 47 % 0.0 mm 39.0 W/m2 BKN
20:31 21.9 °C 10.4 °C 1021.2 hPa WNW 35.2 km/h 35.2 km/h 48 % 0.0 mm 30.0 W/m2 BKN
20:36 21.8 °C 10.3 °C 1021.6 hPa NW 24.1 km/h 24.1 km/h 48 % 0.0 mm 21.0 W/m2 BKN
20:41 21.6 °C 10.1 °C 1021.6 hPa NNW 37.0 km/h 37.0 km/h 48 % 0.0 mm 14.0 W/m2 BKN
20:46 21.4 °C 10.2 °C 1021.6 hPa NW 31.5 km/h 31.5 km/h 49 % 0.0 mm 12.0 W/m2 BKN
20:51 21.1 °C 10.0 °C 1021.6 hPa WNW 27.8 km/h 27.8 km/h 49 % 0.0 mm 11.0 W/m2 BKN
20:56 20.8 °C 10.0 °C 1021.6 hPa NW 31.5 km/h 31.5 km/h 50 % 0.0 mm 7.0 W/m2 BKN
21:01 20.7 °C 10.2 °C 1021.6 hPa NW 29.6 km/h 29.6 km/h 51 % 0.0 mm 5.0 W/m2 OVC
21:06 20.6 °C 10.1 °C 1021.6 hPa NW 19.3 km/h 19.3 km/h 51 % 0.0 mm 0.0 W/m2 OVC
21:11 20.5 °C 10.0 °C 1021.6 hPa NW 29.6 km/h 29.6 km/h 51 % 0.0 mm 0.0 W/m2 OVC
21:16 20.4 °C 9.9 °C 1021.6 hPa NNW 38.9 km/h 38.9 km/h 51 % 0.0 mm 0.0 W/m2 CLR
21:18 20.4 °C 9.9 °C 1021.6 hPa NW 49.9 km/h 49.9 km/h 51 % 0.0 mm 0.0 W/m2 CLR
21:23 20.3 °C 10.1 °C 1021.9 hPa WNW 40.2 km/h 40.2 km/h 52 % 0.0 mm 0.0 W/m2 CLR
21:28 20.1 °C 10.2 °C 1021.9 hPa WNW 31.5 km/h 31.5 km/h 53 % 0.0 mm 0.0 W/m2 CLR
21:33 19.9 °C 10.1 °C 1021.9 hPa NW 42.6 km/h 42.6 km/h 53 % 0.0 mm 0.0 W/m2 CLR
21:38 19.8 °C 10.3 °C 1021.9 hPa WNW 22.2 km/h 22.2 km/h 54 % 0.0 mm 0.0 W/m2 CLR
21:43 19.7 °C 10.4 °C 1022.2 hPa WNW 31.5 km/h 31.5 km/h 55 % 0.0 mm 0.0 W/m2 CLR
21:48 19.6 °C 10.3 °C 1022.2 hPa WNW 31.5 km/h 31.5 km/h 55 % 0.0 mm 0.0 W/m2 CLR
21:53 19.6 °C 10.3 °C 1022.2 hPa WNW 37.0 km/h 37.0 km/h 55 % 0.0 mm 0.0 W/m2 CLR
21:58 19.4 °C 10.2 °C 1022.6 hPa WNW 35.2 km/h 35.2 km/h 55 % 0.0 mm 0.0 W/m2 CLR
22:03 19.4 °C 10.1 °C 1022.6 hPa WNW 31.5 km/h 31.5 km/h 55 % 0.0 mm 0.0 W/m2 CLR
22:08 19.3 °C 10.0 °C 1022.6 hPa NW 42.6 km/h 42.6 km/h 55 % 0.0 mm 0.0 W/m2 CLR
22:13 19.1 °C 9.8 °C 1022.6 hPa West 27.4 km/h 27.4 km/h 55 % 0.0 mm 0.0 W/m2 CLR
22:18 19.1 °C 9.8 °C 1022.9 hPa WNW 27.8 km/h 27.8 km/h 55 % 0.0 mm 0.0 W/m2 CLR
22:23 18.9 °C 9.7 °C 1022.9 hPa WNW 27.8 km/h 27.8 km/h 55 % 0.0 mm 0.0 W/m2 CLR
22:28 18.9 °C 9.7 °C 1022.9 hPa WNW 29.6 km/h 29.6 km/h 55 % 0.0 mm 0.0 W/m2 CLR
22:33 18.8 °C 9.6 °C 1022.9 hPa WNW 33.3 km/h 33.3 km/h 55 % 0.0 mm 0.0 W/m2 CLR
22:38 18.7 °C 9.5 °C 1023.2 hPa NW 29.6 km/h 29.6 km/h 55 % 0.0 mm 0.0 W/m2 CLR
22:43 18.6 °C 9.4 °C 1023.2 hPa NW 25.9 km/h 25.9 km/h 55 % 0.0 mm 0.0 W/m2 CLR
22:48 18.6 °C 9.6 °C 1023.2 hPa West 25.9 km/h 25.9 km/h 56 % 0.0 mm 0.0 W/m2 CLR
22:53 18.5 °C 9.6 °C 1023.2 hPa WNW 24.1 km/h 24.1 km/h 56 % 0.0 mm 0.0 W/m2 CLR
22:58 18.4 °C 9.5 °C 1023.2 hPa WNW 20.9 km/h 20.9 km/h 56 % 0.0 mm 0.0 W/m2 CLR
23:03 18.4 °C 9.7 °C 1023.2 hPa WNW 29.6 km/h 29.6 km/h 57 % 0.0 mm 0.0 W/m2 CLR
23:08 18.3 °C 9.7 °C 1023.2 hPa WNW 25.9 km/h 25.9 km/h 57 % 0.0 mm 0.0 W/m2 CLR
23:13 18.2 °C 9.6 °C 1023.6 hPa WNW 25.9 km/h 25.9 km/h 57 % 0.0 mm 0.0 W/m2 CLR
23:18 18.2 °C 9.8 °C 1023.2 hPa WNW 24.1 km/h 24.1 km/h 58 % 0.0 mm 0.0 W/m2 CLR
23:23 18.1 °C 9.7 °C 1023.2 hPa WNW 25.9 km/h 25.9 km/h 58 % 0.0 mm 0.0 W/m2 CLR
23:28 18.1 °C 9.7 °C 1023.6 hPa WSW 31.5 km/h 31.5 km/h 58 % 0.0 mm 0.0 W/m2 CLR
23:33 18.0 °C 9.6 °C 1023.6 hPa WNW 22.2 km/h 22.2 km/h 58 % 0.0 mm 0.0 W/m2 CLR
23:38 17.9 °C 9.8 °C 1023.6 hPa WSW 14.8 km/h 14.8 km/h 59 % 0.0 mm 0.0 W/m2 CLR
23:43 17.8 °C 9.4 °C 1023.6 hPa West 20.9 km/h 20.9 km/h 58 % 0.0 mm 0.0 W/m2 CLR
23:48 17.8 °C 9.4 °C 1023.6 hPa West 22.2 km/h 22.2 km/h 58 % 0.0 mm 0.0 W/m2 CLR
23:53 17.7 °C 9.6 °C 1023.6 hPa West 22.2 km/h 22.2 km/h 59 % 0.0 mm 0.0 W/m2 CLR
23:58 17.7 °C 9.6 °C 1023.6 hPa WNW 24.1 km/h 24.1 km/h 59 % 0.0 mm 0.0 W/m2 CLR
Lo Temps de Massalio
Compliments of Weather Underground - 1.25 mb